sensor_id;sensor_type;location;lat;lon;timestamp;P1;durP1;ratioP1;P2;durP2;ratioP2
62654;SDS011;48717;55.556;37.816;2023-02-03T00:01:36;32.28;;;11.93;;
62654;SDS011;48717;55.556;37.816;2023-02-03T00:04:03;42.50;;;14.70;;
62654;SDS011;48717;55.556;37.816;2023-02-03T00:06:30;46.70;;;15.68;;
62654;SDS011;48717;55.556;37.816;2023-02-03T00:08:58;47.60;;;15.38;;
62654;SDS011;48717;55.556;37.816;2023-02-03T00:11:30;50.90;;;17.30;;
62654;SDS011;48717;55.556;37.816;2023-02-03T00:13:58;55.30;;;17.35;;
62654;SDS011;48717;55.556;37.816;2023-02-03T00:16:25;39.50;;;13.05;;
62654;SDS011;48717;55.556;37.816;2023-02-03T00:18:52;48.72;;;16.27;;
62654;SDS011;48717;55.556;37.816;2023-02-03T00:21:19;50.22;;;16.15;;
62654;SDS011;48717;55.556;37.816;2023-02-03T00:23:46;43.38;;;15.23;;
62654;SDS011;48717;55.556;37.816;2023-02-03T00:26:14;47.78;;;16.42;;
62654;SDS011;48717;55.556;37.816;2023-02-03T00:28:43;47.55;;;16.05;;
62654;SDS011;48717;55.556;37.816;2023-02-03T00:31:18;48.15;;;16.15;;
62654;SDS011;48717;55.556;37.816;2023-02-03T00:33:52;32.65;;;11.90;;
62654;SDS011;48717;55.556;37.816;2023-02-03T00:36:20;30.42;;;11.65;;
62654;SDS011;48717;55.556;37.816;2023-02-03T00:38:49;46.25;;;15.75;;
62654;SDS011;48717;55.556;37.816;2023-02-03T00:41:16;50.92;;;16.27;;
62654;SDS011;48717;55.556;37.816;2023-02-03T00:43:44;50.35;;;17.20;;
62654;SDS011;48717;55.556;37.816;2023-02-03T00:46:12;47.40;;;15.85;;
62654;SDS011;48717;55.556;37.816;2023-02-03T00:48:40;39.80;;;14.75;;
62654;SDS011;48717;55.556;37.816;2023-02-03T00:51:07;42.50;;;14.85;;
62654;SDS011;48717;55.556;37.816;2023-02-03T00:53:34;44.03;;;15.45;;
62654;SDS011;48717;55.556;37.816;2023-02-03T00:56:01;40.58;;;12.98;;
62654;SDS011;48717;55.556;37.816;2023-02-03T00:58:28;50.10;;;16.50;;
62654;SDS011;48717;55.556;37.816;2023-02-03T01:00:55;43.47;;;16.25;;
62654;SDS011;48717;55.556;37.816;2023-02-03T01:03:23;45.78;;;16.52;;
62654;SDS011;48717;55.556;37.816;2023-02-03T01:05:51;53.53;;;17.58;;
62654;SDS011;48717;55.556;37.816;2023-02-03T01:08:18;38.47;;;14.15;;
62654;SDS011;48717;55.556;37.816;2023-02-03T01:10:45;45.13;;;16.42;;
62654;SDS011;48717;55.556;37.816;2023-02-03T01:13:12;48.97;;;15.32;;
62654;SDS011;48717;55.556;37.816;2023-02-03T01:15:46;42.95;;;14.80;;
62654;SDS011;48717;55.556;37.816;2023-02-03T01:18:14;51.08;;;17.42;;
62654;SDS011;48717;55.556;37.816;2023-02-03T01:20:42;48.03;;;16.20;;
62654;SDS011;48717;55.556;37.816;2023-02-03T01:23:10;48.47;;;16.83;;
62654;SDS011;48717;55.556;37.816;2023-02-03T01:25:37;33.45;;;12.75;;
62654;SDS011;48717;55.556;37.816;2023-02-03T01:28:04;47.10;;;16.27;;
62654;SDS011;48717;55.556;37.816;2023-02-03T01:30:31;38.05;;;13.48;;
62654;SDS011;48717;55.556;37.816;2023-02-03T01:33:00;49.17;;;16.33;;
62654;SDS011;48717;55.556;37.816;2023-02-03T01:35:27;36.88;;;13.25;;
62654;SDS011;48717;55.556;37.816;2023-02-03T01:37:54;41.13;;;14.25;;
62654;SDS011;48717;55.556;37.816;2023-02-03T01:40:21;28.13;;;11.40;;
62654;SDS011;48717;55.556;37.816;2023-02-03T01:42:48;38.78;;;13.85;;
62654;SDS011;48717;55.556;37.816;2023-02-03T01:45:15;45.33;;;15.35;;
62654;SDS011;48717;55.556;37.816;2023-02-03T01:47:45;45.17;;;16.08;;
62654;SDS011;48717;55.556;37.816;2023-02-03T01:53:12;48.63;;;16.30;;
62654;SDS011;48717;55.556;37.816;2023-02-03T01:55:42;50.97;;;17.23;;
62654;SDS011;48717;55.556;37.816;2023-02-03T02:00:52;37.28;;;12.18;;
62654;SDS011;48717;55.556;37.816;2023-02-03T02:03:22;18.00;;;8.30;;
62654;SDS011;48717;55.556;37.816;2023-02-03T02:05:55;21.23;;;8.80;;
62654;SDS011;48717;55.556;37.816;2023-02-03T02:08:28;48.65;;;15.25;;
62654;SDS011;48717;55.556;37.816;2023-02-03T02:10:57;39.33;;;15.55;;
62654;SDS011;48717;55.556;37.816;2023-02-03T02:13:26;18.17;;;8.75;;
62654;SDS011;48717;55.556;37.816;2023-02-03T02:43:48;31.38;;;10.48;;
62654;SDS011;48717;55.556;37.816;2023-02-03T02:46:48;59.92;;;19.67;;
62654;SDS011;48717;55.556;37.816;2023-02-03T02:49:17;39.00;;;12.75;;
62654;SDS011;48717;55.556;37.816;2023-02-03T02:51:48;60.53;;;19.17;;
62654;SDS011;48717;55.556;37.816;2023-02-03T02:54:18;35.20;;;12.98;;
62654;SDS011;48717;55.556;37.816;2023-02-03T02:56:54;32.67;;;13.55;;
62654;SDS011;48717;55.556;37.816;2023-02-03T02:59:26;40.20;;;13.68;;
62654;SDS011;48717;55.556;37.816;2023-02-03T03:01:55;35.05;;;13.80;;
62654;SDS011;48717;55.556;37.816;2023-02-03T03:04:23;56.30;;;17.73;;
62654;SDS011;48717;55.556;37.816;2023-02-03T03:06:55;54.20;;;17.60;;
62654;SDS011;48717;55.556;37.816;2023-02-03T03:09:35;31.02;;;12.95;;
62654;SDS011;48717;55.556;37.816;2023-02-03T03:12:07;48.83;;;16.23;;
62654;SDS011;48717;55.556;37.816;2023-02-03T03:14:40;47.78;;;16.02;;
62654;SDS011;48717;55.556;37.816;2023-02-03T03:17:12;43.08;;;14.43;;
62654;SDS011;48717;55.556;37.816;2023-02-03T03:19:47;60.17;;;17.73;;
62654;SDS011;48717;55.556;37.816;2023-02-03T03:22:18;47.25;;;14.25;;
62654;SDS011;48717;55.556;37.816;2023-02-03T03:24:56;28.85;;;11.27;;
62654;SDS011;48717;55.556;37.816;2023-02-03T03:27:35;51.30;;;17.55;;
62654;SDS011;48717;55.556;37.816;2023-02-03T03:30:07;32.22;;;11.48;;
62654;SDS011;48717;55.556;37.816;2023-02-03T03:32:39;33.65;;;11.50;;
62654;SDS011;48717;55.556;37.816;2023-02-03T03:35:07;33.10;;;12.13;;
62654;SDS011;48717;55.556;37.816;2023-02-03T03:37:42;38.92;;;12.98;;
62654;SDS011;48717;55.556;37.816;2023-02-03T03:40:58;42.78;;;14.00;;
62654;SDS011;48717;55.556;37.816;2023-02-03T03:43:15;52.13;;;18.35;;
62654;SDS011;48717;55.556;37.816;2023-02-03T03:51:10;56.50;;;18.58;;
62654;SDS011;48717;55.556;37.816;2023-02-03T03:53:45;48.35;;;16.75;;
62654;SDS011;48717;55.556;37.816;2023-02-03T03:56:17;56.33;;;18.45;;
62654;SDS011;48717;55.556;37.816;2023-02-03T03:58:49;58.47;;;18.73;;
62654;SDS011;48717;55.556;37.816;2023-02-03T04:01:19;40.07;;;14.57;;
62654;SDS011;48717;55.556;37.816;2023-02-03T04:03:49;42.40;;;14.52;;
62654;SDS011;48717;55.556;37.816;2023-02-03T04:06:22;55.97;;;16.48;;
62654;SDS011;48717;55.556;37.816;2023-02-03T04:08:49;41.90;;;13.27;;
62654;SDS011;48717;55.556;37.816;2023-02-03T04:11:16;58.60;;;17.88;;
62654;SDS011;48717;55.556;37.816;2023-02-03T04:14:03;55.58;;;17.35;;
62654;SDS011;48717;55.556;37.816;2023-02-03T04:16:30;57.00;;;19.00;;
62654;SDS011;48717;55.556;37.816;2023-02-03T04:18:57;63.70;;;19.85;;
62654;SDS011;48717;55.556;37.816;2023-02-03T04:21:24;62.17;;;17.35;;
62654;SDS011;48717;55.556;37.816;2023-02-03T04:23:52;52.50;;;17.70;;
62654;SDS011;48717;55.556;37.816;2023-02-03T04:26:19;56.42;;;18.02;;
62654;SDS011;48717;55.556;37.816;2023-02-03T04:28:46;53.58;;;16.90;;
62654;SDS011;48717;55.556;37.816;2023-02-03T04:31:13;60.95;;;18.05;;
62654;SDS011;48717;55.556;37.816;2023-02-03T04:33:40;62.45;;;18.90;;
62654;SDS011;48717;55.556;37.816;2023-02-03T04:36:08;64.25;;;19.63;;
62654;SDS011;48717;55.556;37.816;2023-02-03T04:38:35;40.75;;;14.10;;
62654;SDS011;48717;55.556;37.816;2023-02-03T04:41:02;52.75;;;15.75;;
62654;SDS011;48717;55.556;37.816;2023-02-03T04:43:29;57.50;;;16.98;;
62654;SDS011;48717;55.556;37.816;2023-02-03T04:45:59;63.38;;;19.52;;
62654;SDS011;48717;55.556;37.816;2023-02-03T04:48:26;55.22;;;17.40;;
62654;SDS011;48717;55.556;37.816;2023-02-03T04:50:54;26.98;;;11.75;;
62654;SDS011;48717;55.556;37.816;2023-02-03T04:53:21;54.10;;;18.25;;
62654;SDS011;48717;55.556;37.816;2023-02-03T04:55:48;41.85;;;15.40;;
62654;SDS011;48717;55.556;37.816;2023-02-03T04:58:15;57.47;;;19.65;;
62654;SDS011;48717;55.556;37.816;2023-02-03T05:00:42;59.05;;;19.70;;
62654;SDS011;48717;55.556;37.816;2023-02-03T05:03:09;69.85;;;18.95;;
62654;SDS011;48717;55.556;37.816;2023-02-03T05:05:37;54.20;;;17.30;;
62654;SDS011;48717;55.556;37.816;2023-02-03T05:08:04;50.17;;;16.33;;
62654;SDS011;48717;55.556;37.816;2023-02-03T05:10:31;41.60;;;13.48;;
62654;SDS011;48717;55.556;37.816;2023-02-03T05:12:58;51.17;;;15.45;;
62654;SDS011;48717;55.556;37.816;2023-02-03T05:15:25;62.17;;;18.85;;
62654;SDS011;48717;55.556;37.816;2023-02-03T05:17:53;53.67;;;16.08;;
62654;SDS011;48717;55.556;37.816;2023-02-03T05:20:20;48.13;;;16.10;;
62654;SDS011;48717;55.556;37.816;2023-02-03T05:22:48;64.90;;;19.80;;
62654;SDS011;48717;55.556;37.816;2023-02-03T05:25:15;63.80;;;19.25;;
62654;SDS011;48717;55.556;37.816;2023-02-03T05:27:42;42.05;;;14.02;;
62654;SDS011;48717;55.556;37.816;2023-02-03T05:30:09;51.15;;;14.32;;
62654;SDS011;48717;55.556;37.816;2023-02-03T05:32:37;54.97;;;18.98;;
62654;SDS011;48717;55.556;37.816;2023-02-03T05:35:04;60.60;;;19.02;;
62654;SDS011;48717;55.556;37.816;2023-02-03T05:37:32;46.33;;;14.57;;
62654;SDS011;48717;55.556;37.816;2023-02-03T05:39:59;66.15;;;19.67;;
62654;SDS011;48717;55.556;37.816;2023-02-03T05:42:46;68.03;;;20.77;;
62654;SDS011;48717;55.556;37.816;2023-02-03T05:45:14;62.90;;;17.75;;
62654;SDS011;48717;55.556;37.816;2023-02-03T05:47:42;57.65;;;18.25;;
62654;SDS011;48717;55.556;37.816;2023-02-03T05:50:09;59.05;;;18.77;;
62654;SDS011;48717;55.556;37.816;2023-02-03T05:52:36;55.95;;;16.27;;
62654;SDS011;48717;55.556;37.816;2023-02-03T05:55:03;51.17;;;14.32;;
62654;SDS011;48717;55.556;37.816;2023-02-03T05:57:31;62.33;;;19.95;;
62654;SDS011;48717;55.556;37.816;2023-02-03T05:59:58;60.25;;;18.13;;
62654;SDS011;48717;55.556;37.816;2023-02-03T06:02:25;57.10;;;17.23;;
62654;SDS011;48717;55.556;37.816;2023-02-03T06:04:52;54.50;;;16.10;;
62654;SDS011;48717;55.556;37.816;2023-02-03T06:07:19;61.33;;;18.15;;
62654;SDS011;48717;55.556;37.816;2023-02-03T06:09:47;58.38;;;17.38;;
62654;SDS011;48717;55.556;37.816;2023-02-03T06:12:14;63.17;;;19.27;;
62654;SDS011;48717;55.556;37.816;2023-02-03T06:14:41;61.53;;;17.23;;
62654;SDS011;48717;55.556;37.816;2023-02-03T06:17:08;61.72;;;19.50;;
62654;SDS011;48717;55.556;37.816;2023-02-03T06:19:36;53.80;;;17.63;;
62654;SDS011;48717;55.556;37.816;2023-02-03T06:22:03;68.63;;;19.58;;
62654;SDS011;48717;55.556;37.816;2023-02-03T06:24:30;67.85;;;19.10;;
62654;SDS011;48717;55.556;37.816;2023-02-03T06:26:57;66.35;;;18.63;;
62654;SDS011;48717;55.556;37.816;2023-02-03T06:29:24;58.90;;;16.83;;
62654;SDS011;48717;55.556;37.816;2023-02-03T06:31:51;71.18;;;19.10;;
62654;SDS011;48717;55.556;37.816;2023-02-03T06:34:18;66.55;;;19.60;;
62654;SDS011;48717;55.556;37.816;2023-02-03T06:36:45;75.00;;;20.35;;
62654;SDS011;48717;55.556;37.816;2023-02-03T06:39:13;61.25;;;17.73;;
62654;SDS011;48717;55.556;37.816;2023-02-03T06:41:41;68.00;;;20.20;;
62654;SDS011;48717;55.556;37.816;2023-02-03T06:44:08;93.03;;;31.85;;
62654;SDS011;48717;55.556;37.816;2023-02-03T06:46:35;51.67;;;16.13;;
62654;SDS011;48717;55.556;37.816;2023-02-03T06:49:02;49.88;;;16.35;;
62654;SDS011;48717;55.556;37.816;2023-02-03T06:51:29;42.60;;;11.55;;
62654;SDS011;48717;55.556;37.816;2023-02-03T06:53:57;62.65;;;19.33;;
62654;SDS011;48717;55.556;37.816;2023-02-03T06:56:24;66.40;;;19.15;;
62654;SDS011;48717;55.556;37.816;2023-02-03T06:58:52;62.92;;;18.92;;
62654;SDS011;48717;55.556;37.816;2023-02-03T07:01:19;70.10;;;18.67;;
62654;SDS011;48717;55.556;37.816;2023-02-03T07:03:46;72.45;;;19.95;;
62654;SDS011;48717;55.556;37.816;2023-02-03T07:06:13;39.90;;;12.65;;
62654;SDS011;48717;55.556;37.816;2023-02-03T07:08:40;58.03;;;18.80;;
62654;SDS011;48717;55.556;37.816;2023-02-03T07:11:07;38.40;;;12.77;;
62654;SDS011;48717;55.556;37.816;2023-02-03T07:13:35;35.97;;;11.27;;
62654;SDS011;48717;55.556;37.816;2023-02-03T07:16:02;61.83;;;17.60;;
62654;SDS011;48717;55.556;37.816;2023-02-03T07:18:30;42.80;;;13.93;;
62654;SDS011;48717;55.556;37.816;2023-02-03T07:21:13;36.15;;;12.20;;
62654;SDS011;48717;55.556;37.816;2023-02-03T07:23:41;32.35;;;11.02;;
62654;SDS011;48717;55.556;37.816;2023-02-03T07:26:09;49.08;;;14.32;;
62654;SDS011;48717;55.556;37.816;2023-02-03T07:28:36;50.08;;;14.68;;
62654;SDS011;48717;55.556;37.816;2023-02-03T07:31:04;47.38;;;14.32;;
62654;SDS011;48717;55.556;37.816;2023-02-03T07:33:34;45.70;;;15.52;;
62654;SDS011;48717;55.556;37.816;2023-02-03T07:36:01;27.35;;;10.25;;
62654;SDS011;48717;55.556;37.816;2023-02-03T07:38:29;30.02;;;10.07;;
62654;SDS011;48717;55.556;37.816;2023-02-03T07:40:56;28.45;;;10.82;;
62654;SDS011;48717;55.556;37.816;2023-02-03T07:43:23;51.75;;;16.38;;
62654;SDS011;48717;55.556;37.816;2023-02-03T07:45:50;36.42;;;10.93;;
62654;SDS011;48717;55.556;37.816;2023-02-03T07:48:17;35.65;;;10.73;;
62654;SDS011;48717;55.556;37.816;2023-02-03T07:50:46;37.85;;;13.02;;
62654;SDS011;48717;55.556;37.816;2023-02-03T07:53:13;33.92;;;10.90;;
62654;SDS011;48717;55.556;37.816;2023-02-03T07:55:41;40.20;;;13.90;;
62654;SDS011;48717;55.556;37.816;2023-02-03T07:58:08;44.95;;;14.65;;
62654;SDS011;48717;55.556;37.816;2023-02-03T08:00:35;46.20;;;15.10;;
62654;SDS011;48717;55.556;37.816;2023-02-03T08:03:02;46.80;;;15.10;;
62654;SDS011;48717;55.556;37.816;2023-02-03T08:05:30;41.50;;;14.77;;
62654;SDS011;48717;55.556;37.816;2023-02-03T08:07:57;27.80;;;10.52;;
62654;SDS011;48717;55.556;37.816;2023-02-03T08:10:25;40.55;;;13.27;;
62654;SDS011;48717;55.556;37.816;2023-02-03T08:12:53;43.63;;;14.20;;
62654;SDS011;48717;55.556;37.816;2023-02-03T08:15:20;47.25;;;14.65;;
62654;SDS011;48717;55.556;37.816;2023-02-03T08:17:48;36.90;;;12.32;;
62654;SDS011;48717;55.556;37.816;2023-02-03T08:20:15;50.95;;;17.40;;
62654;SDS011;48717;55.556;37.816;2023-02-03T08:22:43;45.83;;;15.70;;
62654;SDS011;48717;55.556;37.816;2023-02-03T08:25:11;41.10;;;13.55;;
62654;SDS011;48717;55.556;37.816;2023-02-03T08:27:38;34.08;;;11.45;;
62654;SDS011;48717;55.556;37.816;2023-02-03T08:30:07;44.42;;;15.18;;
62654;SDS011;48717;55.556;37.816;2023-02-03T08:32:37;39.10;;;13.45;;
62654;SDS011;48717;55.556;37.816;2023-02-03T08:35:04;34.88;;;11.32;;
62654;SDS011;48717;55.556;37.816;2023-02-03T08:37:32;42.75;;;14.93;;
62654;SDS011;48717;55.556;37.816;2023-02-03T08:39:59;27.50;;;10.43;;
62654;SDS011;48717;55.556;37.816;2023-02-03T08:42:28;48.40;;;15.77;;
62654;SDS011;48717;55.556;37.816;2023-02-03T08:44:55;42.47;;;14.73;;
62654;SDS011;48717;55.556;37.816;2023-02-03T08:47:23;36.50;;;12.20;;
62654;SDS011;48717;55.556;37.816;2023-02-03T08:49:51;36.30;;;13.30;;
62654;SDS011;48717;55.556;37.816;2023-02-03T08:52:18;25.60;;;10.88;;
62654;SDS011;48717;55.556;37.816;2023-02-03T08:54:46;25.05;;;10.35;;
62654;SDS011;48717;55.556;37.816;2023-02-03T08:57:13;40.25;;;14.02;;
62654;SDS011;48717;55.556;37.816;2023-02-03T08:59:41;36.90;;;13.93;;
62654;SDS011;48717;55.556;37.816;2023-02-03T09:02:10;25.45;;;10.90;;
62654;SDS011;48717;55.556;37.816;2023-02-03T09:04:42;39.63;;;15.52;;
62654;SDS011;48717;55.556;37.816;2023-02-03T09:07:10;36.38;;;13.07;;
62654;SDS011;48717;55.556;37.816;2023-02-03T09:09:37;34.13;;;12.60;;
62654;SDS011;48717;55.556;37.816;2023-02-03T09:12:05;27.75;;;9.38;;
62654;SDS011;48717;55.556;37.816;2023-02-03T09:14:33;41.08;;;13.93;;
62654;SDS011;48717;55.556;37.816;2023-02-03T09:17:01;26.20;;;10.23;;
62654;SDS011;48717;55.556;37.816;2023-02-03T09:19:38;32.72;;;10.20;;
62654;SDS011;48717;55.556;37.816;2023-02-03T09:22:05;36.17;;;13.48;;
62654;SDS011;48717;55.556;37.816;2023-02-03T09:24:33;13.73;;;5.97;;
62654;SDS011;48717;55.556;37.816;2023-02-03T09:27:00;34.72;;;12.18;;
62654;SDS011;48717;55.556;37.816;2023-02-03T09:29:31;31.40;;;11.82;;
62654;SDS011;48717;55.556;37.816;2023-02-03T09:34:57;32.83;;;11.40;;
62654;SDS011;48717;55.556;37.816;2023-02-03T09:37:24;36.33;;;10.63;;
62654;SDS011;48717;55.556;37.816;2023-02-03T09:39:51;33.92;;;12.25;;
62654;SDS011;48717;55.556;37.816;2023-02-03T09:47:52;31.13;;;12.10;;
62654;SDS011;48717;55.556;37.816;2023-02-03T09:50:23;9.63;;;5.97;;
62654;SDS011;48717;55.556;37.816;2023-02-03T09:52:54;35.17;;;12.57;;
62654;SDS011;48717;55.556;37.816;2023-02-03T09:55:24;38.92;;;14.32;;
62654;SDS011;48717;55.556;37.816;2023-02-03T09:58:14;16.85;;;8.10;;
62654;SDS011;48717;55.556;37.816;2023-02-03T10:01:01;29.65;;;11.45;;
62654;SDS011;48717;55.556;37.816;2023-02-03T10:03:37;29.15;;;11.70;;
62654;SDS011;48717;55.556;37.816;2023-02-03T10:06:38;27.55;;;10.65;;
62654;SDS011;48717;55.556;37.816;2023-02-03T10:12:50;27.70;;;9.40;;
62654;SDS011;48717;55.556;37.816;2023-02-03T10:15:09;36.53;;;12.00;;
62654;SDS011;48717;55.556;37.816;2023-02-03T10:17:58;26.08;;;11.10;;
62654;SDS011;48717;55.556;37.816;2023-02-03T10:20:42;28.00;;;9.88;;
62654;SDS011;48717;55.556;37.816;2023-02-03T10:23:19;27.48;;;10.45;;
62654;SDS011;48717;55.556;37.816;2023-02-03T10:25:53;18.80;;;7.72;;
62654;SDS011;48717;55.556;37.816;2023-02-03T10:28:27;18.20;;;6.15;;
62654;SDS011;48717;55.556;37.816;2023-02-03T10:30:58;17.23;;;7.00;;
62654;SDS011;48717;55.556;37.816;2023-02-03T10:33:28;29.52;;;10.85;;
62654;SDS011;48717;55.556;37.816;2023-02-03T10:39:13;25.55;;;10.05;;
62654;SDS011;48717;55.556;37.816;2023-02-03T10:41:37;23.67;;;9.50;;
62654;SDS011;48717;55.556;37.816;2023-02-03T10:44:05;22.42;;;8.98;;
62654;SDS011;48717;55.556;37.816;2023-02-03T10:46:40;21.80;;;9.93;;
62654;SDS011;48717;55.556;37.816;2023-02-03T10:49:13;23.60;;;9.95;;
62654;SDS011;48717;55.556;37.816;2023-02-03T10:51:43;24.52;;;9.73;;
62654;SDS011;48717;55.556;37.816;2023-02-03T10:54:25;29.80;;;11.27;;
62654;SDS011;48717;55.556;37.816;2023-02-03T10:57:09;19.88;;;8.43;;
62654;SDS011;48717;55.556;37.816;2023-02-03T10:59:42;16.73;;;7.88;;
62654;SDS011;48717;55.556;37.816;2023-02-03T11:02:29;23.92;;;10.02;;
62654;SDS011;48717;55.556;37.816;2023-02-03T11:07:42;20.13;;;7.97;;
62654;SDS011;48717;55.556;37.816;2023-02-03T11:10:26;21.75;;;8.73;;
62654;SDS011;48717;55.556;37.816;2023-02-03T11:15:52;23.85;;;9.35;;
62654;SDS011;48717;55.556;37.816;2023-02-03T11:18:26;18.52;;;8.65;;
62654;SDS011;48717;55.556;37.816;2023-02-03T11:24:04;20.13;;;8.48;;
62654;SDS011;48717;55.556;37.816;2023-02-03T11:26:42;17.90;;;6.75;;
62654;SDS011;48717;55.556;37.816;2023-02-03T11:29:16;18.73;;;7.85;;
62654;SDS011;48717;55.556;37.816;2023-02-03T11:31:55;19.98;;;8.57;;
62654;SDS011;48717;55.556;37.816;2023-02-03T11:34:32;22.08;;;7.40;;
62654;SDS011;48717;55.556;37.816;2023-02-03T11:37:24;21.83;;;9.23;;
62654;SDS011;48717;55.556;37.816;2023-02-03T11:40:21;19.20;;;7.78;;
62654;SDS011;48717;55.556;37.816;2023-02-03T11:47:45;16.33;;;6.90;;
62654;SDS011;48717;55.556;37.816;2023-02-03T11:53:05;18.17;;;7.90;;
62654;SDS011;48717;55.556;37.816;2023-02-03T12:23:55;16.73;;;7.45;;
62654;SDS011;48717;55.556;37.816;2023-02-03T12:30:58;16.00;;;6.40;;
62654;SDS011;48717;55.556;37.816;2023-02-03T12:33:41;16.27;;;7.00;;
62654;SDS011;48717;55.556;37.816;2023-02-03T12:36:36;13.82;;;6.30;;
62654;SDS011;48717;55.556;37.816;2023-02-03T12:39:16;15.70;;;5.47;;
62654;SDS011;48717;55.556;37.816;2023-02-03T12:41:50;11.70;;;5.60;;
62654;SDS011;48717;55.556;37.816;2023-02-03T12:47:37;22.13;;;8.77;;
62654;SDS011;48717;55.556;37.816;2023-02-03T12:50:17;20.80;;;9.27;;
62654;SDS011;48717;55.556;37.816;2023-02-03T12:58:25;18.67;;;7.97;;
62654;SDS011;48717;55.556;37.816;2023-02-03T13:11:53;15.85;;;7.18;;
62654;SDS011;48717;55.556;37.816;2023-02-03T13:14:27;17.55;;;7.95;;
62654;SDS011;48717;55.556;37.816;2023-02-03T13:17:07;22.77;;;9.80;;
62654;SDS011;48717;55.556;37.816;2023-02-03T13:19:55;15.60;;;7.28;;
62654;SDS011;48717;55.556;37.816;2023-02-03T13:22:45;20.20;;;8.25;;
62654;SDS011;48717;55.556;37.816;2023-02-03T13:25:38;20.92;;;8.85;;
62654;SDS011;48717;55.556;37.816;2023-02-03T13:28:28;11.98;;;5.55;;
62654;SDS011;48717;55.556;37.816;2023-02-03T13:31:21;21.88;;;9.15;;
62654;SDS011;48717;55.556;37.816;2023-02-03T13:34:34;15.75;;;7.45;;
62654;SDS011;48717;55.556;37.816;2023-02-03T13:40:43;21.42;;;8.52;;
62654;SDS011;48717;55.556;37.816;2023-02-03T13:43:27;25.65;;;11.30;;
62654;SDS011;48717;55.556;37.816;2023-02-03T13:46:05;24.17;;;8.53;;
62654;SDS011;48717;55.556;37.816;2023-02-03T13:48:43;23.70;;;10.45;;
62654;SDS011;48717;55.556;37.816;2023-02-03T13:51:13;26.92;;;11.07;;
62654;SDS011;48717;55.556;37.816;2023-02-03T13:53:44;18.73;;;9.07;;
62654;SDS011;48717;55.556;37.816;2023-02-03T13:56:18;27.38;;;10.48;;
62654;SDS011;48717;55.556;37.816;2023-02-03T13:58:59;29.20;;;11.55;;
62654;SDS011;48717;55.556;37.816;2023-02-03T14:01:28;29.27;;;11.07;;
62654;SDS011;48717;55.556;37.816;2023-02-03T14:04:07;28.80;;;11.45;;
62654;SDS011;48717;55.556;37.816;2023-02-03T14:06:58;19.30;;;8.50;;
62654;SDS011;48717;55.556;37.816;2023-02-03T14:14:44;27.67;;;11.27;;
62654;SDS011;48717;55.556;37.816;2023-02-03T14:20:01;18.88;;;7.75;;
62654;SDS011;48717;55.556;37.816;2023-02-03T14:22:31;30.67;;;11.95;;
62654;SDS011;48717;55.556;37.816;2023-02-03T14:25:03;30.38;;;11.40;;
62654;SDS011;48717;55.556;37.816;2023-02-03T14:27:32;33.08;;;13.55;;
62654;SDS011;48717;55.556;37.816;2023-02-03T14:30:03;28.67;;;11.18;;
62654;SDS011;48717;55.556;37.816;2023-02-03T14:35:38;26.08;;;10.13;;
62654;SDS011;48717;55.556;37.816;2023-02-03T14:38:08;37.40;;;14.57;;
62654;SDS011;48717;55.556;37.816;2023-02-03T14:57:36;18.30;;;8.73;;
62654;SDS011;48717;55.556;37.816;2023-02-03T15:05:44;34.90;;;12.43;;
62654;SDS011;48717;55.556;37.816;2023-02-03T15:11:31;31.88;;;11.40;;
62654;SDS011;48717;55.556;37.816;2023-02-03T15:14:13;25.67;;;10.30;;
62654;SDS011;48717;55.556;37.816;2023-02-03T15:16:44;31.85;;;12.45;;
62654;SDS011;48717;55.556;37.816;2023-02-03T15:19:21;25.92;;;10.63;;
62654;SDS011;48717;55.556;37.816;2023-02-03T15:24:18;30.20;;;11.48;;
62654;SDS011;48717;55.556;37.816;2023-02-03T15:26:51;26.13;;;10.38;;
62654;SDS011;48717;55.556;37.816;2023-02-03T15:29:26;28.38;;;10.95;;
62654;SDS011;48717;55.556;37.816;2023-02-03T15:32:00;36.83;;;13.60;;
62654;SDS011;48717;55.556;37.816;2023-02-03T15:34:32;35.92;;;12.90;;
62654;SDS011;48717;55.556;37.816;2023-02-03T15:37:10;24.85;;;8.55;;
62654;SDS011;48717;55.556;37.816;2023-02-03T15:39:59;18.55;;;9.10;;
62654;SDS011;48717;55.556;37.816;2023-02-03T15:47:58;18.48;;;7.85;;
62654;SDS011;48717;55.556;37.816;2023-02-03T15:53:18;35.65;;;14.52;;
62654;SDS011;48717;55.556;37.816;2023-02-03T15:59:04;27.73;;;11.00;;
62654;SDS011;48717;55.556;37.816;2023-02-03T16:01:32;29.80;;;10.70;;
62654;SDS011;48717;55.556;37.816;2023-02-03T16:03:59;32.47;;;12.23;;
62654;SDS011;48717;55.556;37.816;2023-02-03T16:06:32;36.05;;;12.93;;
62654;SDS011;48717;55.556;37.816;2023-02-03T16:15:19;25.27;;;9.25;;
62654;SDS011;48717;55.556;37.816;2023-02-03T16:17:53;23.02;;;9.45;;
62654;SDS011;48717;55.556;37.816;2023-02-03T16:20:24;20.45;;;8.63;;
62654;SDS011;48717;55.556;37.816;2023-02-03T16:28:37;30.23;;;11.32;;
62654;SDS011;48717;55.556;37.816;2023-02-03T16:31:24;28.30;;;10.95;;
62654;SDS011;48717;55.556;37.816;2023-02-03T16:34:14;22.08;;;8.82;;
62654;SDS011;48717;55.556;37.816;2023-02-03T16:37:10;28.73;;;11.15;;
62654;SDS011;48717;55.556;37.816;2023-02-03T16:40:12;29.67;;;10.98;;
62654;SDS011;48717;55.556;37.816;2023-02-03T16:43:16;14.80;;;7.28;;
62654;SDS011;48717;55.556;37.816;2023-02-03T16:46:07;28.05;;;10.55;;
62654;SDS011;48717;55.556;37.816;2023-02-03T16:48:55;22.50;;;9.70;;
62654;SDS011;48717;55.556;37.816;2023-02-03T16:51:43;24.15;;;9.40;;
62654;SDS011;48717;55.556;37.816;2023-02-03T16:54:36;18.33;;;10.23;;
62654;SDS011;48717;55.556;37.816;2023-02-03T16:57:04;20.25;;;8.48;;
62654;SDS011;48717;55.556;37.816;2023-02-03T16:59:31;18.52;;;9.20;;
62654;SDS011;48717;55.556;37.816;2023-02-03T17:01:59;14.32;;;6.95;;
62654;SDS011;48717;55.556;37.816;2023-02-03T17:04:27;25.10;;;10.32;;
62654;SDS011;48717;55.556;37.816;2023-02-03T17:06:54;23.77;;;10.13;;
62654;SDS011;48717;55.556;37.816;2023-02-03T17:09:21;28.58;;;11.65;;
62654;SDS011;48717;55.556;37.816;2023-02-03T17:11:50;26.35;;;11.35;;
62654;SDS011;48717;55.556;37.816;2023-02-03T17:14:17;23.42;;;10.10;;
62654;SDS011;48717;55.556;37.816;2023-02-03T17:16:44;14.35;;;6.85;;
62654;SDS011;48717;55.556;37.816;2023-02-03T17:19:12;27.05;;;10.68;;
62654;SDS011;48717;55.556;37.816;2023-02-03T17:21:39;17.10;;;7.78;;
62654;SDS011;48717;55.556;37.816;2023-02-03T17:24:06;29.55;;;11.02;;
62654;SDS011;48717;55.556;37.816;2023-02-03T17:26:33;21.92;;;8.77;;
62654;SDS011;48717;55.556;37.816;2023-02-03T17:29:00;17.67;;;8.65;;
62654;SDS011;48717;55.556;37.816;2023-02-03T17:31:29;28.55;;;11.25;;
62654;SDS011;48717;55.556;37.816;2023-02-03T17:33:57;17.50;;;8.20;;
62654;SDS011;48717;55.556;37.816;2023-02-03T17:36:24;20.42;;;9.10;;
62654;SDS011;48717;55.556;37.816;2023-02-03T17:38:53;51.25;;;23.17;;
62654;SDS011;48717;55.556;37.816;2023-02-03T17:41:40;22.75;;;8.40;;
62654;SDS011;48717;55.556;37.816;2023-02-03T17:44:25;24.27;;;9.15;;
62654;SDS011;48717;55.556;37.816;2023-02-03T17:47:10;15.85;;;7.13;;